ワルシャワ の空港の天気 - METARとTAF

ワルシャワ・フレデリック・ショパン空港 ( EPWA / WAW ) - ポーランド ワルシャワ
飛行場実況気象(Metar)
観測時間07/29 05:30 CEST (07/29 03:30 UTC)
風向・風速西 4m/s
視程10km以上
天気現象
なし
気温19℃
湿度88%
気圧1010hPa
METAREPWA 290330Z 27008KT CAVOK 19/17 Q1010 NOSIG
過去の天気等 Google飛行場航空写真 Wunderground天気予報

過去48時間のMETAR

飛行場予報(TAF)
発表時間: 7/29 04:30 CEST (7/29 02:30 UTC)
予報対象時間: 29日5時 CEST ~ 30日5時 CEST
風向・風速西 4m/s
視程10km以上
なし
29日5時 CEST ~ 29日8時 CEST に 確率 40% で一時的に
全天の8割程度の雲 雲底高度 210m
29日11時 CEST ~ 29日17時 CEST に一時的に
風向・風速西 8m/s 瞬間風速 13m/s
全天の4割程度の塔状積雲 雲底高度 910m
TAF EPWA 290230Z 2903/3003 26007KT CAVOK
PROB40 TEMPO 2903/2906 BKN007
TEMPO 2909/2915 26015G25KT SCT030TCU